createdAt,value
2018-04-02T00:00:18.120Z,0
2018-04-02T00:01:17.938Z,0
2018-04-02T00:02:17.903Z,0
2018-04-02T00:03:18.194Z,0
2018-04-02T00:04:17.936Z,0
2018-04-02T00:05:17.709Z,0
2018-04-02T00:06:17.967Z,0
2018-04-02T00:07:18.002Z,0
2018-04-02T00:08:18.002Z,0
2018-04-02T00:09:17.765Z,0
2018-04-02T00:10:18.027Z,0
2018-04-02T00:11:18.203Z,0
2018-04-02T00:12:17.294Z,0
2018-04-02T00:13:18.079Z,0
2018-04-02T00:14:18.087Z,0
2018-04-02T00:15:18.106Z,0
2018-04-02T00:16:18.446Z,0
2018-04-02T00:17:17.661Z,0
2018-04-02T00:18:18.398Z,0
2018-04-02T00:19:18.421Z,0
2018-04-02T00:20:17.407Z,0
2018-04-02T00:21:17.946Z,0
2018-04-02T00:22:17.689Z,0
2018-04-02T00:23:18.576Z,0
2018-04-02T00:24:18.482Z,0
2018-04-02T00:25:17.987Z,0
2018-04-02T00:26:18.316Z,0
2018-04-02T00:27:18.526Z,0
2018-04-02T00:28:18.031Z,0
2018-04-02T00:29:18.049Z,0
2018-04-02T00:30:18.587Z,0
2018-04-02T00:31:18.610Z,0
2018-04-02T00:32:18.331Z,0
2018-04-02T00:33:18.112Z,0
2018-04-02T00:34:18.113Z,0
2018-04-02T00:35:18.402Z,0
2018-04-02T00:36:19.284Z,0
2018-04-02T00:37:18.429Z,0
2018-04-02T00:38:18.444Z,0
2018-04-02T00:39:18.452Z,0
2018-04-02T00:40:18.472Z,0
2018-04-02T00:41:18.540Z,0
2018-04-02T00:42:18.509Z,0
2018-04-02T00:43:18.557Z,0
2018-04-02T00:44:18.788Z,0
2018-04-02T00:45:18.540Z,0
2018-04-02T00:46:18.810Z,0
2018-04-02T00:47:18.573Z,0
2018-04-02T00:48:18.344Z,0
2018-04-02T00:49:18.847Z,0
2018-04-02T00:50:18.614Z,0
2018-04-02T00:51:18.628Z,0
2018-04-02T00:52:18.389Z,0
2018-04-02T00:53:18.708Z,0
2018-04-02T00:54:18.670Z,0
2018-04-02T00:55:19.309Z,0
2018-04-02T00:56:18.462Z,0
2018-04-02T00:57:18.720Z,0
2018-04-02T00:58:18.993Z,0
2018-04-02T00:59:18.749Z,0
2018-04-02T01:00:18.251Z,0
2018-04-02T01:01:18.777Z,0
2018-04-02T01:02:19.081Z,0
2018-04-02T01:03:19.084Z,0
2018-04-02T01:04:18.864Z,0
2018-04-02T01:05:19.225Z,0
2018-04-02T01:06:18.596Z,0
2018-04-02T01:07:19.141Z,0
2018-04-02T01:08:19.191Z,0
2018-04-02T01:09:18.640Z,0
2018-04-02T01:10:18.908Z,0
2018-04-02T01:11:18.672Z,0
2018-04-02T01:12:18.944Z,0
2018-04-02T01:13:18.955Z,0
2018-04-02T01:14:18.712Z,0
2018-04-02T01:15:18.479Z,0
2018-04-02T01:16:18.981Z,0
2018-04-02T01:17:18.758Z,0
2018-04-02T01:18:18.553Z,0
2018-04-02T01:19:19.020Z,0
2018-04-02T01:20:19.286Z,0
2018-04-02T01:21:19.059Z,0
2018-04-02T01:22:19.332Z,0
2018-04-02T01:23:19.333Z,0
2018-04-02T01:24:19.121Z,0
2018-04-02T01:25:19.143Z,0
2018-04-02T01:26:19.153Z,0
2018-04-02T01:27:19.185Z,0
2018-04-02T01:28:19.189Z,0
2018-04-02T01:29:19.305Z,0
2018-04-02T01:30:19.206Z,0
2018-04-02T01:31:19.243Z,0
2018-04-02T01:32:19.265Z,0
2018-04-02T01:33:18.541Z,0
2018-04-02T01:34:19.267Z,0
2018-04-02T01:35:19.292Z,0
2018-04-02T01:36:18.788Z,0
2018-04-02T01:37:19.317Z,0
2018-04-02T01:38:19.330Z,0
2018-04-02T01:39:19.108Z,0
2018-04-02T01:40:18.851Z,0
2018-04-02T01:41:19.373Z,0
2018-04-02T01:42:19.140Z,0
2018-04-02T01:43:19.151Z,0
2018-04-02T01:44:19.668Z,0
2018-04-02T01:45:19.430Z,0
2018-04-02T01:46:19.192Z,0
2018-04-02T01:47:18.947Z,0
2018-04-02T01:48:19.797Z,0
2018-04-02T01:49:19.500Z,0
2018-04-02T01:50:19.268Z,0
2018-04-02T01:51:19.770Z,0
2018-04-02T01:52:19.024Z,0
2018-04-02T01:53:19.544Z,0
2018-04-02T01:54:19.565Z,0
2018-04-02T01:55:19.328Z,0
2018-04-02T01:56:19.336Z,0
2018-04-02T01:57:19.604Z,0
2018-04-02T01:58:19.370Z,0
2018-04-02T01:59:19.888Z,0
2018-04-02T02:00:19.911Z,0
2018-04-02T02:01:19.416Z,0
2018-04-02T02:02:19.943Z,0
2018-04-02T02:03:19.847Z,0
2018-04-02T02:04:19.974Z,0
2018-04-02T02:05:19.223Z,0
2018-04-02T02:06:19.999Z,0
2018-04-02T02:07:19.766Z,0
2018-04-02T02:08:19.262Z,0
2018-04-02T02:09:19.531Z,0
2018-04-02T02:10:19.821Z,0
2018-04-02T02:11:19.817Z,0
2018-04-02T02:12:19.844Z,0
2018-04-02T02:13:19.833Z,0
2018-04-02T02:14:19.343Z,0
2018-04-02T02:15:19.618Z,0
2018-04-02T02:16:19.881Z,0
2018-04-02T02:17:19.389Z,0
2018-04-02T02:18:19.959Z,0
2018-04-02T02:19:19.938Z,0
2018-04-02T02:20:19.950Z,0
2018-04-02T02:21:20.224Z,0
2018-04-02T02:22:19.973Z,0
2018-04-02T02:23:19.988Z,0
2018-04-02T02:24:20.252Z,0
2018-04-02T02:25:20.020Z,0
2018-04-02T02:26:19.775Z,0
2018-04-02T02:27:20.046Z,0
2018-04-02T02:28:20.326Z,0
2018-04-02T02:29:19.565Z,0
2018-04-02T02:30:20.119Z,0
2018-04-02T02:31:20.368Z,0
2018-04-02T02:32:20.399Z,0
2018-04-02T02:33:20.484Z,0
2018-04-02T02:34:20.152Z,0
2018-04-02T02:35:20.424Z,0
2018-04-02T02:36:19.930Z,0
2018-04-02T02:37:20.519Z,0
2018-04-02T02:38:20.212Z,0
2018-04-02T02:39:20.226Z,0
2018-04-02T02:40:20.235Z,0
2018-04-02T02:41:20.267Z,0
2018-04-02T02:42:20.272Z,0
2018-04-02T02:43:20.330Z,0
2018-04-02T02:44:20.291Z,0
2018-04-02T02:45:20.318Z,0
2018-04-02T02:46:20.068Z,0
2018-04-02T02:47:20.412Z,0
2018-04-02T02:48:20.616Z,0
2018-04-02T02:49:20.111Z,0
2018-04-02T02:50:20.646Z,0
2018-04-02T02:51:20.398Z,0
2018-04-02T02:52:20.165Z,0
2018-04-02T02:53:20.421Z,0
2018-04-02T02:54:20.458Z,0
2018-04-02T02:55:20.449Z,0
2018-04-02T02:56:20.212Z,0
2018-04-02T02:57:20.227Z,0
2018-04-02T02:58:20.559Z,0
2018-04-02T02:59:20.767Z,0
2018-04-02T03:00:20.793Z,0
2018-04-02T03:01:20.299Z,0
2018-04-02T03:02:20.573Z,0
2018-04-02T03:03:20.831Z,0
2018-04-02T03:04:20.864Z,0
2018-04-02T03:05:20.864Z,0
2018-04-02T03:06:20.353Z,0
2018-04-02T03:07:20.122Z,0
2018-04-02T03:08:20.390Z,0
2018-04-02T03:09:20.376Z,0
2018-04-02T03:10:20.648Z,0
2018-04-02T03:11:20.647Z,0
2018-04-02T03:12:20.699Z,0
2018-04-02T03:13:20.775Z,0
2018-04-02T03:14:20.481Z,0
2018-04-02T03:15:20.745Z,0
2018-04-02T03:16:20.759Z,0
2018-04-02T03:17:21.064Z,0
2018-04-02T03:18:21.038Z,0
2018-04-02T03:19:20.804Z,0
2018-04-02T03:20:20.305Z,0
2018-04-02T03:21:20.827Z,0
2018-04-02T03:22:20.868Z,0
2018-04-02T03:23:20.898Z,0
2018-04-02T03:24:20.877Z,0
2018-04-02T03:25:21.134Z,0
2018-04-02T03:26:21.142Z,0
2018-04-02T03:27:21.173Z,0
2018-04-02T03:28:21.231Z,0
2018-04-02T03:29:20.939Z,0
2018-04-02T03:30:21.216Z,0
2018-04-02T03:31:21.233Z,0
2018-04-02T03:32:20.991Z,0
2018-04-02T03:33:20.991Z,0
2018-04-02T03:34:21.033Z,0
2018-04-02T03:35:21.287Z,0
2018-04-02T03:36:21.290Z,0
2018-04-02T03:37:20.798Z,0
2018-04-02T03:38:21.327Z,0
2018-04-02T03:39:20.570Z,0
2018-04-02T03:40:21.358Z,0
2018-04-02T03:41:20.612Z,0
2018-04-02T03:42:21.383Z,0
2018-04-02T03:43:21.193Z,0
2018-04-02T03:44:21.162Z,0
2018-04-02T03:45:21.430Z,0
2018-04-02T03:46:20.685Z,0
2018-04-02T03:47:21.455Z,0
2018-04-02T03:48:21.465Z,0
2018-04-02T03:49:20.941Z,0
2018-04-02T03:50:21.213Z,0
2018-04-02T03:51:21.000Z,0
2018-04-02T03:52:21.242Z,0
2018-04-02T03:53:21.301Z,0
2018-04-02T03:54:21.265Z,0
2018-04-02T03:55:21.298Z,0
2018-04-02T03:56:21.304Z,0
2018-04-02T03:57:21.064Z,0
2018-04-02T03:58:21.632Z,0
2018-04-02T03:59:21.350Z,0
2018-04-02T04:00:21.100Z,0
2018-04-02T04:01:21.639Z,0
2018-04-02T04:02:21.139Z,0
2018-04-02T04:03:21.390Z,0
2018-04-02T04:04:21.435Z,0
2018-04-02T04:05:21.174Z,0
2018-04-02T04:06:21.430Z,0
2018-04-02T04:07:21.451Z,0
2018-04-02T04:08:21.483Z,0
2018-04-02T04:09:21.725Z,0
2018-04-02T04:10:21.751Z,0
2018-04-02T04:11:21.252Z,0
2018-04-02T04:12:21.268Z,0
2018-04-02T04:13:21.349Z,0
2018-04-02T04:14:21.551Z,0
2018-04-02T04:15:21.342Z,0
2018-04-02T04:16:21.624Z,0
2018-04-02T04:17:21.938Z,0
2018-04-02T04:18:21.387Z,0
2018-04-02T04:19:21.396Z,0
2018-04-02T04:20:21.668Z,0
2018-04-02T04:21:21.686Z,0
2018-04-02T04:22:21.444Z,0
2018-04-02T04:23:21.706Z,0
2018-04-02T04:24:21.470Z,0
2018-04-02T04:25:21.761Z,0
2018-04-02T04:26:21.793Z,0
2018-04-02T04:27:21.778Z,0
2018-04-02T04:28:21.585Z,0
2018-04-02T04:29:22.062Z,0
2018-04-02T04:30:21.545Z,0
2018-04-02T04:31:21.824Z,0
2018-04-02T04:32:21.836Z,0
2018-04-02T04:33:21.869Z,0
2018-04-02T04:34:21.878Z,0
2018-04-02T04:35:21.635Z,0
2018-04-02T04:36:21.644Z,0
2018-04-02T04:37:21.672Z,0
2018-04-02T04:38:22.185Z,0
2018-04-02T04:39:22.200Z,0
2018-04-02T04:40:22.129Z,0
2018-04-02T04:41:21.460Z,0
2018-04-02T04:42:22.238Z,0
2018-04-02T04:43:22.052Z,0
2018-04-02T04:44:22.011Z,0
2018-04-02T04:45:21.528Z,0
2018-04-02T04:46:22.037Z,0
2018-04-02T04:47:22.311Z,5
2018-04-02T04:48:22.331Z,5
2018-04-02T04:49:22.343Z,5
2018-04-02T04:50:22.112Z,5
2018-04-02T04:51:21.869Z,5
2018-04-02T04:52:21.878Z,5
2018-04-02T04:53:21.943Z,5
2018-04-02T04:54:22.171Z,10
2018-04-02T04:55:22.435Z,10
2018-04-02T04:56:21.426Z,10
2018-04-02T04:57:21.946Z,10
2018-04-02T04:58:22.212Z,10
2018-04-02T04:59:22.575Z,10
2018-04-02T05:00:21.998Z,15
2018-04-02T05:01:22.019Z,15
2018-04-02T05:02:22.530Z,15
2018-04-02T05:03:22.290Z,15
2018-04-02T05:04:22.587Z,15
2018-04-02T05:05:22.580Z,20
2018-04-02T05:06:22.335Z,20
2018-04-02T05:07:21.836Z,20
2018-04-02T05:08:22.409Z,20
2018-04-02T05:09:22.381Z,20
2018-04-02T05:10:22.703Z,20
2018-04-02T05:11:22.404Z,25
2018-04-02T05:12:22.486Z,25
2018-04-02T05:13:22.435Z,25
2018-04-02T05:14:22.414Z,25
2018-04-02T05:15:22.676Z,25
2018-04-02T05:16:22.743Z,30
2018-04-02T05:17:22.457Z,30
2018-04-02T05:18:22.732Z,30
2018-04-02T05:19:22.241Z,30
2018-04-02T05:20:22.775Z,35
2018-04-02T05:21:22.774Z,35
2018-04-02T05:22:22.570Z,35
2018-04-02T05:23:22.075Z,40
2018-04-02T05:24:22.852Z,40
2018-04-02T05:25:22.352Z,40
2018-04-02T05:26:22.620Z,45
2018-04-02T05:27:22.705Z,45
2018-04-02T05:28:22.641Z,45
2018-04-02T05:29:22.896Z,50
2018-04-02T05:30:22.644Z,50
2018-04-02T05:31:22.908Z,55
2018-04-02T05:32:22.171Z,55
2018-04-02T05:33:22.703Z,60
2018-04-02T05:34:22.984Z,60
2018-04-02T05:35:22.502Z,60
2018-04-02T05:36:22.770Z,65
2018-04-02T05:37:22.777Z,65
2018-04-02T05:38:22.289Z,70
2018-04-02T05:39:22.807Z,70
2018-04-02T05:40:23.091Z,70
2018-04-02T05:41:22.595Z,75
2018-04-02T05:42:22.392Z,75
2018-04-02T05:43:22.874Z,75
2018-04-02T05:44:22.618Z,80
2018-04-02T05:45:22.764Z,80
2018-04-02T05:46:22.395Z,80
2018-04-02T05:47:22.675Z,85
2018-04-02T05:48:22.680Z,85
2018-04-02T05:49:22.440Z,85
2018-04-02T05:50:23.242Z,85
2018-04-02T05:51:22.718Z,90
2018-04-02T05:52:22.992Z,90
2018-04-02T05:53:22.747Z,90
2018-04-02T05:54:23.300Z,95
2018-04-02T05:55:23.292Z,95
2018-04-02T05:56:23.054Z,95
2018-04-02T05:57:23.207Z,100
2018-04-02T05:58:22.568Z,100
2018-04-02T05:59:23.339Z,100
2018-04-02T06:00:23.354Z,105
2018-04-02T06:01:22.862Z,105
2018-04-02T06:02:23.135Z,105
2018-04-02T06:03:23.152Z,110
2018-04-02T06:04:22.905Z,110
2018-04-02T06:05:23.527Z,110
2018-04-02T06:06:23.191Z,115
2018-04-02T06:07:23.455Z,115
2018-04-02T06:08:23.221Z,115
2018-04-02T06:09:23.246Z,115
2018-04-02T06:10:22.741Z,120
2018-04-02T06:11:23.523Z,120
2018-04-02T06:12:23.088Z,120
2018-04-02T06:13:23.296Z,120
2018-04-02T06:14:23.563Z,120
2018-04-02T06:15:23.074Z,120
2018-04-02T06:16:23.364Z,120
2018-04-02T06:17:23.366Z,120
2018-04-02T06:18:23.626Z,125
2018-04-02T06:19:23.408Z,125
2018-04-02T06:20:23.443Z,125
2018-04-02T06:21:23.682Z,125
2018-04-02T06:22:23.460Z,125
2018-04-02T06:23:23.705Z,125
2018-04-02T06:24:22.970Z,130
2018-04-02T06:25:23.253Z,130
2018-04-02T06:26:23.464Z,135
2018-04-02T06:27:23.789Z,135
2018-04-02T06:28:23.259Z,135
2018-04-02T06:29:23.781Z,135
2018-04-02T06:30:23.683Z,140
2018-04-02T06:31:23.581Z,140
2018-04-02T06:32:23.841Z,140
2018-04-02T06:33:23.608Z,140
2018-04-02T06:34:23.859Z,145
2018-04-02T06:35:23.624Z,145
2018-04-02T06:36:23.644Z,145
2018-04-02T06:37:23.662Z,150
2018-04-02T06:38:23.469Z,150
2018-04-02T06:39:23.953Z,150
2018-04-02T06:40:23.712Z,150
2018-04-02T06:41:23.722Z,150
2018-04-02T06:42:23.736Z,150
2018-04-02T06:43:23.505Z,155
2018-04-02T06:44:23.818Z,155
2018-04-02T06:45:23.817Z,155
2018-04-02T06:46:23.799Z,155
2018-04-02T06:47:23.814Z,160
2018-04-02T06:48:24.088Z,160
2018-04-02T06:49:24.099Z,160
2018-04-02T06:50:23.871Z,165
2018-04-02T06:51:23.631Z,165
2018-04-02T06:52:24.152Z,165
2018-04-02T06:53:23.655Z,165
2018-04-02T06:54:24.172Z,165
2018-04-02T06:55:23.964Z,165
2018-04-02T06:56:23.955Z,170
2018-04-02T06:57:24.241Z,170
2018-04-02T06:58:23.993Z,170
2018-04-02T06:59:23.539Z,170
2018-04-02T07:00:23.506Z,175
2018-04-02T07:01:24.057Z,175
2018-04-02T07:02:23.550Z,175
2018-04-02T07:03:23.814Z,175
2018-04-02T07:04:24.082Z,175
2018-04-02T07:05:24.361Z,180
2018-04-02T07:06:23.857Z,180
2018-04-02T07:07:23.885Z,180
2018-04-02T07:08:23.887Z,180
2018-04-02T07:09:23.909Z,185
2018-04-02T07:10:23.935Z,185
2018-04-02T07:11:24.202Z,185
2018-04-02T07:12:24.208Z,190
2018-04-02T07:13:24.484Z,190
2018-04-02T07:14:24.246Z,190
2018-04-02T07:15:24.314Z,190
2018-04-02T07:16:23.529Z,195
2018-04-02T07:17:24.079Z,190
2018-04-02T07:18:24.052Z,185
2018-04-02T07:19:24.069Z,170
2018-04-02T07:20:24.590Z,195
2018-04-02T07:21:24.353Z,200
2018-04-02T07:22:24.118Z,200
2018-04-02T07:23:24.130Z,200
2018-04-02T07:24:24.664Z,200
2018-04-02T07:25:24.737Z,200
2018-04-02T07:26:24.185Z,200
2018-04-02T07:27:23.949Z,200
2018-04-02T07:28:24.477Z,205
2018-04-02T07:29:24.784Z,205
2018-04-02T07:30:24.503Z,205
2018-04-02T07:31:24.584Z,215
2018-04-02T07:32:24.028Z,210
2018-04-02T07:33:24.581Z,205
2018-04-02T07:34:24.319Z,200
2018-04-02T07:35:24.844Z,195
2018-04-02T07:36:24.629Z,205
2018-04-02T07:37:24.414Z,210
2018-04-02T07:38:24.628Z,215
2018-04-02T07:39:24.659Z,210
2018-04-02T07:40:24.210Z,210
2018-04-02T07:41:24.684Z,210
2018-04-02T07:42:24.698Z,200
2018-04-02T07:43:24.465Z,205
2018-04-02T07:44:24.844Z,190
2018-04-02T07:45:24.498Z,185
2018-04-02T07:46:24.843Z,205
2018-04-02T07:47:24.794Z,200
2018-04-02T07:48:24.803Z,210
2018-04-02T07:49:25.083Z,210
2018-04-02T07:50:25.102Z,215
2018-04-02T07:51:24.847Z,220
2018-04-02T07:52:24.877Z,220
2018-04-02T07:53:24.381Z,220
2018-04-02T07:54:25.164Z,220
2018-04-02T07:55:25.233Z,220
2018-04-02T07:56:24.691Z,220
2018-04-02T07:57:24.960Z,220
2018-04-02T07:58:24.738Z,220
2018-04-02T07:59:25.019Z,220
2018-04-02T08:00:25.044Z,220
2018-04-02T08:01:24.765Z,220
2018-04-02T08:02:24.539Z,225
2018-04-02T08:03:25.068Z,225
2018-04-02T08:04:25.523Z,220
2018-04-02T08:05:24.847Z,225
2018-04-02T08:06:24.600Z,225
2018-04-02T08:07:25.372Z,225
2018-04-02T08:08:24.879Z,225
2018-04-02T08:09:24.898Z,225
2018-04-02T08:10:25.222Z,225
2018-04-02T08:11:25.439Z,230
2018-04-02T08:12:25.213Z,230
2018-04-02T08:13:25.501Z,230
2018-04-02T08:14:24.772Z,230
2018-04-02T08:15:25.273Z,230
2018-04-02T08:16:25.552Z,230
2018-04-02T08:17:25.566Z,235
2018-04-02T08:18:25.325Z,235
2018-04-02T08:19:25.084Z,235
2018-04-02T08:20:25.107Z,235
2018-04-02T08:21:25.476Z,235
2018-04-02T08:22:25.154Z,235
2018-04-02T08:23:25.162Z,240
2018-04-02T08:24:25.438Z,240
2018-04-02T08:25:25.900Z,240
2018-04-02T08:26:25.225Z,240
2018-04-02T08:27:25.745Z,240
2018-04-02T08:28:25.315Z,240
2018-04-02T08:29:25.528Z,245
2018-04-02T08:30:25.544Z,245
2018-04-02T08:31:25.313Z,245
2018-04-02T08:32:25.078Z,245
2018-04-02T08:33:25.591Z,245
2018-04-02T08:34:25.361Z,250
2018-04-02T08:35:25.370Z,255
2018-04-02T08:36:25.936Z,255
2018-04-02T08:37:26.023Z,250
2018-04-02T08:38:25.688Z,250
2018-04-02T08:39:25.719Z,255
2018-04-02T08:40:25.776Z,255
2018-04-02T08:41:25.483Z,255
2018-04-02T08:42:25.506Z,255
2018-04-02T08:43:26.031Z,255
2018-04-02T08:44:25.962Z,255
2018-04-02T08:45:25.820Z,260
2018-04-02T08:46:25.600Z,260
2018-04-02T08:47:25.342Z,260
2018-04-02T08:48:25.874Z,260
2018-04-02T08:49:26.134Z,260
2018-04-02T08:50:25.624Z,260
2018-04-02T08:51:25.930Z,260
2018-04-02T08:52:25.703Z,260
2018-04-02T08:53:26.228Z,260
2018-04-02T08:54:25.978Z,265
2018-04-02T08:55:26.055Z,265
2018-04-02T08:56:25.510Z,265
2018-04-02T08:57:26.042Z,265
2018-04-02T08:58:25.552Z,265
2018-04-02T08:59:25.580Z,265
2018-04-02T09:00:26.347Z,265
2018-04-02T09:01:26.406Z,265
2018-04-02T09:02:26.190Z,270
2018-04-02T09:03:25.921Z,270
2018-04-02T09:04:25.911Z,270
2018-04-02T09:05:25.941Z,270
2018-04-02T09:06:26.196Z,270
2018-04-02T09:07:25.965Z,275
2018-04-02T09:08:25.970Z,275
2018-04-02T09:09:26.032Z,275
2018-04-02T09:10:26.065Z,275
2018-04-02T09:11:26.287Z,275
2018-04-02T09:12:26.053Z,305
2018-04-02T09:13:26.094Z,485
2018-04-02T09:14:26.102Z,620
2018-04-02T09:15:26.114Z,635
2018-04-02T09:16:26.133Z,635
2018-04-02T09:17:26.414Z,645
2018-04-02T09:18:26.195Z,640
2018-04-02T09:19:26.465Z,650
2018-04-02T09:20:26.485Z,660
2018-04-02T09:21:26.768Z,660
2018-04-02T09:22:26.272Z,675
2018-04-02T09:23:26.289Z,675
2018-04-02T09:24:26.569Z,680
2018-04-02T09:25:26.634Z,690
2018-04-02T09:26:27.496Z,700
2018-04-02T09:27:26.643Z,710
2018-04-02T09:28:26.650Z,705
2018-04-02T09:29:26.672Z,710
2018-04-02T09:30:26.697Z,715
2018-04-02T09:31:26.204Z,705
2018-04-02T09:32:26.994Z,260
2018-04-02T09:33:26.515Z,665
2018-04-02T09:34:27.060Z,670
2018-04-02T09:35:26.312Z,640
2018-04-02T09:36:27.106Z,645
2018-04-02T09:37:26.866Z,655
2018-04-02T09:38:26.879Z,650
2018-04-02T09:39:26.905Z,665
2018-04-02T09:40:26.983Z,695
2018-04-02T09:41:26.697Z,705
2018-04-02T09:42:26.474Z,700
2018-04-02T09:43:27.013Z,685
2018-04-02T09:44:27.058Z,675
2018-04-02T09:45:27.071Z,695
2018-04-02T09:46:27.089Z,700
2018-04-02T09:47:27.361Z,695
2018-04-02T09:48:26.627Z,695
2018-04-02T09:49:27.157Z,690
2018-04-02T09:50:27.439Z,685
2018-04-02T09:51:27.215Z,680
2018-04-02T09:52:26.731Z,665
2018-04-02T09:53:27.273Z,650
2018-04-02T09:54:27.407Z,655
2018-04-02T09:55:27.367Z,650
2018-04-02T09:56:26.835Z,625
2018-04-02T09:57:27.373Z,640
2018-04-02T09:58:27.137Z,630
2018-04-02T09:59:27.721Z,620
2018-04-02T10:00:26.949Z,620
2018-04-02T10:01:27.730Z,620
2018-04-02T10:02:27.492Z,620
2018-04-02T10:03:27.537Z,610
2018-04-02T10:04:27.892Z,595
2018-04-02T10:05:27.602Z,585
2018-04-02T10:06:27.610Z,585
2018-04-02T10:07:27.634Z,575
2018-04-02T10:08:27.412Z,575
2018-04-02T10:09:27.713Z,575
2018-04-02T10:10:27.840Z,565
2018-04-02T10:11:27.235Z,570
2018-04-02T10:12:27.531Z,580
2018-04-02T10:13:27.553Z,575
2018-04-02T10:14:28.143Z,575
2018-04-02T10:15:27.998Z,575
2018-04-02T10:16:27.633Z,565
2018-04-02T10:17:27.924Z,570
2018-04-02T10:18:27.946Z,585
2018-04-02T10:19:27.721Z,580
2018-04-02T10:20:28.903Z,585
2018-04-02T10:21:27.540Z,575
2018-04-02T10:22:28.384Z,580
2018-04-02T10:23:28.093Z,585
2018-04-02T10:24:28.156Z,580
2018-04-02T10:25:28.487Z,580
2018-04-02T10:26:28.526Z,600
2018-04-02T10:27:28.464Z,610
2018-04-02T10:28:28.240Z,605
2018-04-02T10:29:28.042Z,595
2018-04-02T10:30:28.559Z,580
2018-04-02T10:31:28.067Z,590
2018-04-02T10:32:28.612Z,600
2018-04-02T10:33:28.636Z,595
2018-04-02T10:34:28.207Z,610
2018-04-02T10:35:28.181Z,600
2018-04-02T10:36:28.470Z,600
2018-04-02T10:37:28.853Z,600
2018-04-02T10:38:28.805Z,595
2018-04-02T10:39:28.317Z,605
2018-04-02T10:40:28.646Z,615
2018-04-02T10:41:28.106Z,625
2018-04-02T10:42:28.731Z,630
2018-04-02T10:43:29.013Z,615
2018-04-02T10:44:28.954Z,610
2018-04-02T10:45:28.290Z,590
2018-04-02T10:46:28.756Z,580
2018-04-02T10:47:28.549Z,590
2018-04-02T10:48:28.328Z,585
2018-04-02T10:49:28.361Z,585
2018-04-02T10:50:28.903Z,575
2018-04-02T10:51:29.182Z,580
2018-04-02T10:52:28.958Z,590
2018-04-02T10:53:28.488Z,585
2018-04-02T10:54:29.018Z,590
2018-04-02T10:55:28.541Z,595
2018-04-02T10:56:29.079Z,540
2018-04-02T10:57:29.367Z,550
2018-04-02T10:58:29.153Z,545
2018-04-02T10:59:28.920Z,540
2018-04-02T11:00:29.009Z,555
2018-04-02T11:01:29.489Z,555
2018-04-02T11:02:29.274Z,565
2018-04-02T11:03:28.796Z,635
2018-04-02T11:04:29.451Z,645
2018-04-02T11:05:29.396Z,660
2018-04-02T11:06:29.411Z,670
2018-04-02T11:07:29.438Z,695
2018-04-02T11:08:29.239Z,745
2018-04-02T11:09:29.498Z,735
2018-04-02T11:10:29.636Z,765
2018-04-02T11:11:29.324Z,800
2018-04-02T11:12:29.145Z,755
2018-04-02T11:13:29.376Z,700
2018-04-02T11:14:29.672Z,685
2018-04-02T11:15:29.758Z,720
2018-04-02T11:16:29.206Z,740
2018-04-02T11:17:29.759Z,710
2018-04-02T11:18:29.295Z,685
2018-04-02T11:19:30.069Z,690
2018-04-02T11:20:30.104Z,700
2018-04-02T11:21:29.888Z,735
2018-04-02T11:22:29.919Z,765
2018-04-02T11:23:29.937Z,765
2018-04-02T11:24:29.974Z,745
2018-04-02T11:25:30.240Z,780
2018-04-02T11:26:30.032Z,880
2018-04-02T11:27:30.082Z,945
2018-04-02T11:28:30.294Z,865
2018-04-02T11:29:29.620Z,850
2018-04-02T11:30:30.200Z,915
2018-04-02T11:31:30.192Z,885
2018-04-02T11:32:29.973Z,830
2018-04-02T11:33:30.288Z,845
2018-04-02T11:34:30.537Z,870
2018-04-02T11:35:30.139Z,885
2018-04-02T11:36:30.102Z,960
2018-04-02T11:37:29.897Z,1045
2018-04-02T11:38:30.693Z,1100
2018-04-02T11:39:30.216Z,1135
2018-04-02T11:40:30.762Z,1085
2018-04-02T11:41:30.290Z,1000
2018-04-02T11:42:30.586Z,930
2018-04-02T11:43:30.362Z,940
2018-04-02T11:44:30.645Z,1000
2018-04-02T11:45:30.423Z,1085
2018-04-02T11:46:30.464Z,1150
2018-04-02T11:47:30.481Z,970
2018-04-02T11:48:30.783Z,1115
2018-04-02T11:49:30.807Z,1295
2018-04-02T11:50:30.637Z,1350
2018-04-02T11:51:30.879Z,1495
2018-04-02T11:52:30.880Z,1520
2018-04-02T11:53:30.404Z,1610
2018-04-02T11:54:31.194Z,1545
2018-04-02T11:55:31.076Z,1660
2018-04-02T11:56:30.758Z,1555
2018-04-02T11:57:30.550Z,1370
2018-04-02T11:58:30.822Z,1425
2018-04-02T11:59:31.133Z,1500
2018-04-02T12:00:30.640Z,1495
2018-04-02T12:01:31.178Z,1575
2018-04-02T12:02:31.224Z,1690
2018-04-02T12:03:31.249Z,1635
2018-04-02T12:04:31.291Z,1645
2018-04-02T12:05:30.606Z,1700
2018-04-02T12:06:31.112Z,1860
2018-04-02T12:07:31.408Z,1990
2018-04-02T12:08:31.448Z,1940
2018-04-02T12:09:31.518Z,1950
2018-04-02T12:10:31.526Z,1995
2018-04-02T12:11:31.557Z,1975
2018-04-02T12:12:31.594Z,1925
2018-04-02T12:13:31.621Z,2030
2018-04-02T12:14:31.395Z,2105
2018-04-02T12:15:31.475Z,2040
2018-04-02T12:16:31.975Z,2025
2018-04-02T12:17:31.496Z,2005
2018-04-02T12:18:31.773Z,2000
2018-04-02T12:19:31.569Z,2010
2018-04-02T12:20:31.954Z,2185
2018-04-02T12:21:31.637Z,2215
2018-04-02T12:22:32.191Z,2190
2018-04-02T12:23:31.962Z,2340
2018-04-02T12:24:31.482Z,2225
2018-04-02T12:25:31.517Z,2145
2018-04-02T12:26:32.278Z,2080
2018-04-02T12:27:32.298Z,2190
2018-04-02T12:28:32.145Z,2135
2018-04-02T12:29:32.439Z,2150
2018-04-02T12:30:32.203Z,2140
2018-04-02T12:31:31.982Z,2160
2018-04-02T12:32:32.279Z,2185
2018-04-02T12:33:32.162Z,2130
2018-04-02T12:34:32.825Z,2090
2018-04-02T12:35:32.425Z,2120
2018-04-02T12:36:31.908Z,2200
2018-04-02T12:37:31.939Z,2340
2018-04-02T12:38:32.483Z,2360
2018-04-02T12:39:32.268Z,2405
2018-04-02T12:40:32.044Z,2550
2018-04-02T12:41:32.076Z,2385
2018-04-02T12:42:32.619Z,2135
2018-04-02T12:43:33.262Z,2060
2018-04-02T12:44:32.530Z,1820
2018-04-02T12:45:33.156Z,1795
2018-04-02T12:46:32.531Z,2065
2018-04-02T12:47:32.584Z,2475
2018-04-02T12:48:33.035Z,2720
2018-04-02T12:49:33.128Z,2720
2018-04-02T12:50:32.691Z,2720
2018-04-02T12:51:32.678Z,2615
2018-04-02T12:52:32.967Z,2455
2018-04-02T12:53:33.026Z,2505
2018-04-02T12:54:33.038Z,2600
2018-04-02T12:55:33.338Z,2645
2018-04-02T12:56:33.130Z,2700
2018-04-02T12:57:32.892Z,2795
2018-04-02T12:58:33.551Z,2820
2018-04-02T12:59:33.282Z,2665
2018-04-02T13:00:32.754Z,2580
2018-04-02T13:01:33.548Z,2515
2018-04-02T13:02:33.592Z,2715
2018-04-02T13:03:32.861Z,2795
2018-04-02T13:04:33.510Z,2765
2018-04-02T13:05:33.236Z,2615
2018-04-02T13:06:32.975Z,2525
2018-04-02T13:07:33.775Z,2370
2018-04-02T13:08:33.303Z,2640
2018-04-02T13:09:33.348Z,2820
2018-04-02T13:10:33.685Z,2720
2018-04-02T13:11:33.665Z,2625
2018-04-02T13:12:33.695Z,2670
2018-04-02T13:13:33.229Z,2915
2018-04-02T13:14:33.519Z,3020
2018-04-02T13:15:34.061Z,2785
2018-04-02T13:16:33.820Z,2675
2018-04-02T13:17:34.110Z,2640
2018-04-02T13:18:33.920Z,2860
2018-04-02T13:19:33.948Z,2585
2018-04-02T13:20:33.990Z,2790
2018-04-02T13:21:34.299Z,2520
2018-04-02T13:22:33.806Z,2605
2018-04-02T13:23:34.601Z,2730
2018-04-02T13:24:33.633Z,2680
2018-04-02T13:25:34.168Z,2665
2018-04-02T13:26:34.212Z,2335
2018-04-02T13:27:34.500Z,3005
2018-04-02T13:28:34.286Z,2900
2018-04-02T13:29:34.577Z,2975
2018-04-02T13:30:34.348Z,2925
2018-04-02T13:31:34.909Z,2970
2018-04-02T13:32:34.698Z,3030
2018-04-02T13:33:34.276Z,3050
2018-04-02T13:34:34.515Z,3140
2018-04-02T13:35:34.294Z,3060
2018-04-02T13:36:34.840Z,2725
2018-04-02T13:37:34.375Z,2540
2018-04-02T13:38:34.970Z,2725
2018-04-02T13:39:33.937Z,2775
2018-04-02T13:40:34.481Z,2790
2018-04-02T13:41:34.773Z,2225
2018-04-02T13:42:34.554Z,1845
2018-04-02T13:43:34.845Z,1770
2018-04-02T13:44:34.891Z,2085
2018-04-02T13:45:34.940Z,2110
2018-04-02T13:46:34.954Z,2175
2018-04-02T13:47:35.265Z,2205
2018-04-02T13:48:35.048Z,2245
2018-04-02T13:49:34.830Z,2220
2018-04-02T13:50:35.368Z,2210
2018-04-02T13:51:35.142Z,2135
2018-04-02T13:52:34.681Z,1980
2018-04-02T13:53:35.521Z,2090
2018-04-02T13:54:35.001Z,2475
2018-04-02T13:55:35.306Z,2365
2018-04-02T13:56:35.577Z,2485
2018-04-02T13:57:35.346Z,2560
2018-04-02T13:58:35.399Z,2125
2018-04-02T13:59:35.448Z,2010
2018-04-02T14:00:35.494Z,2360
2018-04-02T14:01:35.527Z,2340
2018-04-02T14:02:35.306Z,2425
2018-04-02T14:03:36.259Z,1955